createdAt,value
2022-11-12T00:00:42.299Z,26.25
2022-11-12T00:03:14.770Z,27.75
2022-11-12T00:05:46.790Z,20.50
2022-11-12T00:08:20.987Z,16.00
2022-11-12T00:10:51.930Z,17.00
2022-11-12T00:13:23.264Z,20.00
2022-11-12T00:15:53.503Z,18.50
2022-11-12T00:18:25.693Z,22.50
2022-11-12T00:20:58.889Z,20.75
2022-11-12T00:23:30.031Z,16.50
2022-11-12T00:26:03.291Z,18.00
2022-11-12T00:28:38.028Z,15.50
2022-11-12T00:31:11.037Z,19.25
2022-11-12T00:33:43.444Z,14.25
2022-11-12T00:36:13.953Z,15.25
2022-11-12T00:38:44.312Z,16.75
2022-11-12T00:41:14.567Z,15.25
2022-11-12T00:43:44.888Z,17.00
2022-11-12T00:46:15.395Z,17.25
2022-11-12T00:48:45.662Z,15.75
2022-11-12T00:51:16.081Z,14.75
2022-11-12T00:53:48.361Z,19.00
2022-11-12T00:56:19.069Z,19.00
2022-11-12T00:58:49.447Z,16.75
2022-11-12T01:01:19.885Z,18.25
2022-11-12T01:03:50.198Z,14.50
2022-11-12T01:06:43.947Z,17.25
2022-11-12T01:09:14.645Z,21.00
2022-11-12T01:11:45.588Z,22.00
2022-11-12T01:14:16.069Z,19.75
2022-11-12T01:16:46.883Z,20.75
2022-11-12T01:19:17.847Z,22.50
2022-11-12T01:21:48.169Z,21.75
2022-11-12T01:24:19.093Z,22.00
2022-11-12T01:26:49.396Z,15.25
2022-11-12T01:29:20.014Z,17.25
2022-11-12T01:31:53.742Z,20.00
2022-11-12T01:34:25.057Z,14.50
2022-11-12T01:36:55.505Z,17.25
2022-11-12T01:39:25.789Z,15.75
2022-11-12T01:41:56.201Z,14.75
2022-11-12T01:44:28.916Z,16.00
2022-11-12T01:47:11.712Z,14.25
2022-11-12T01:50:00.857Z,16.25
2022-11-12T01:52:37.218Z,15.00
2022-11-12T01:55:10.363Z,13.00
2022-11-12T01:58:01.373Z,15.75
2022-11-12T02:00:32.126Z,16.25
2022-11-12T02:03:04.964Z,15.75
2022-11-12T02:05:37.516Z,19.50
2022-11-12T02:08:09.623Z,19.00
2022-11-12T02:10:40.739Z,17.50
2022-11-12T02:13:11.358Z,19.75
2022-11-12T02:15:42.333Z,17.25
2022-11-12T02:18:12.680Z,19.25
2022-11-12T02:20:44.085Z,16.75
2022-11-12T02:23:14.293Z,20.00
2022-11-12T02:25:44.564Z,20.50
2022-11-12T02:28:15.745Z,19.00
2022-11-12T02:30:48.911Z,21.00
2022-11-12T02:33:19.382Z,23.00
2022-11-12T02:35:49.622Z,22.25
2022-11-12T02:38:22.151Z,19.50
2022-11-12T02:40:52.798Z,20.00
2022-11-12T02:43:23.012Z,20.25
2022-11-12T02:45:53.380Z,17.25
2022-11-12T02:48:23.779Z,19.00
2022-11-12T02:50:54.816Z,15.50
2022-11-12T02:53:25.807Z,20.25
2022-11-12T02:55:56.223Z,20.00
2022-11-12T02:58:27.019Z,16.75
2022-11-12T03:00:58.266Z,15.50
2022-11-12T03:03:28.582Z,19.00
2022-11-12T03:06:03.063Z,21.75
2022-11-12T03:08:33.395Z,19.75
2022-11-12T03:11:08.810Z,16.50
2022-11-12T03:13:39.729Z,16.00
2022-11-12T03:16:11.612Z,19.50
2022-11-12T03:18:41.964Z,16.00
2022-11-12T03:21:12.431Z,17.75
2022-11-12T03:23:44.002Z,21.50
2022-11-12T03:26:14.349Z,20.00
2022-11-12T03:28:54.533Z,19.00
2022-11-12T03:31:24.887Z,20.75
2022-11-12T03:33:55.669Z,23.25
2022-11-12T03:36:26.224Z,21.00
2022-11-12T03:38:56.692Z,20.75
2022-11-12T03:41:27.081Z,22.75
2022-11-12T03:43:57.363Z,23.25
2022-11-12T03:46:28.591Z,23.00
2022-11-12T03:48:59.002Z,19.25
2022-11-12T03:51:29.518Z,14.75
2022-11-12T03:54:00.040Z,19.00
2022-11-12T03:56:30.870Z,16.00
2022-11-12T03:59:01.350Z,17.50
2022-11-12T04:01:31.980Z,14.75
2022-11-12T04:04:02.490Z,12.50
2022-11-12T04:06:32.928Z,16.50
2022-11-12T04:09:03.159Z,12.50
2022-11-12T04:11:34.000Z,14.50
2022-11-12T04:14:04.382Z,14.25
2022-11-12T04:16:34.752Z,11.00
2022-11-12T04:19:07.898Z,14.25
2022-11-12T04:21:41.280Z,9.75
2022-11-12T04:24:11.742Z,15.00
2022-11-12T04:26:42.348Z,13.50
2022-11-12T04:29:17.963Z,13.00
2022-11-12T04:31:48.715Z,13.75
2022-11-12T04:34:19.146Z,12.75
2022-11-12T04:36:50.005Z,13.00
2022-11-12T04:39:20.420Z,13.00
2022-11-12T04:41:50.557Z,11.50
2022-11-12T04:44:20.820Z,14.50
2022-11-12T04:46:51.694Z,9.50
2022-11-12T04:49:22.196Z,9.75
2022-11-12T04:51:52.582Z,11.50
2022-11-12T04:54:22.903Z,9.00
2022-11-12T04:56:55.615Z,10.25
2022-11-12T04:59:27.178Z,3.00
2022-11-12T05:01:57.497Z,7.50
2022-11-12T05:04:28.095Z,6.00
2022-11-12T05:06:59.099Z,5.00
2022-11-12T05:09:30.009Z,7.50
2022-11-12T05:12:00.294Z,7.00
2022-11-12T05:14:31.206Z,7.00
2022-11-12T05:17:01.771Z,4.00
2022-11-12T05:19:32.945Z,6.25
2022-11-12T05:22:03.879Z,7.00
2022-11-12T05:24:42.604Z,5.50
2022-11-12T05:27:19.151Z,4.50
2022-11-12T05:29:49.505Z,7.00
2022-11-12T05:32:23.718Z,7.75
2022-11-12T05:34:53.650Z,6.00
2022-11-12T05:37:24.451Z,7.75
2022-11-12T05:39:54.954Z,7.00
2022-11-12T05:42:25.671Z,6.00
2022-11-12T05:44:56.144Z,6.75
2022-11-12T05:47:26.463Z,6.00
2022-11-12T05:49:56.686Z,6.75
2022-11-12T05:52:27.039Z,5.00
2022-11-12T05:54:57.740Z,7.00
2022-11-12T05:57:28.899Z,7.00
2022-11-12T06:00:00.741Z,7.00
2022-11-12T06:02:31.128Z,7.00
2022-11-12T06:05:02.054Z,7.00
2022-11-12T06:07:33.150Z,7.00
2022-11-12T06:10:03.751Z,4.00
2022-11-12T06:12:34.300Z,8.25
2022-11-12T06:15:05.645Z,6.00
2022-11-12T06:17:37.168Z,4.00
2022-11-12T06:20:08.680Z,6.00
2022-11-12T06:22:39.772Z,5.50
2022-11-12T06:25:10.190Z,3.00
2022-11-12T06:27:41.418Z,6.25
2022-11-12T06:30:12.205Z,4.00
2022-11-12T06:32:42.487Z,4.00
2022-11-12T06:35:13.865Z,5.25
2022-11-12T06:37:46.753Z,3.25
2022-11-12T06:40:17.316Z,4.00
2022-11-12T06:42:47.669Z,1.00
2022-11-12T06:45:18.194Z,5.25
2022-11-12T06:47:48.593Z,5.75
2022-11-12T06:50:18.857Z,7.00
2022-11-12T06:52:49.156Z,5.25
2022-11-12T06:55:19.450Z,6.75
2022-11-12T06:57:54.271Z,6.00
2022-11-12T07:00:24.885Z,6.75
2022-11-12T07:02:55.327Z,4.75
2022-11-12T07:05:25.717Z,4.50
2022-11-12T07:07:57.769Z,5.00
2022-11-12T07:10:31.813Z,4.75
2022-11-12T07:16:15.879Z,4.25
2022-11-12T07:18:47.814Z,2.50
2022-11-12T07:21:20.541Z,9.00
2022-11-12T07:23:52.468Z,3.00
2022-11-12T07:26:26.209Z,5.75
2022-11-12T07:38:21.161Z,8.25
2022-11-12T07:44:16.290Z,9.00
2022-11-12T07:47:16.451Z,9.50
2022-11-12T07:49:47.358Z,9.25
2022-11-12T07:52:18.011Z,0.00
2022-11-12T07:54:52.341Z,12.25
2022-11-12T07:57:22.860Z,11.25
2022-11-12T07:59:53.630Z,10.00
2022-11-12T08:02:24.521Z,5.25
2022-11-12T08:04:54.928Z,11.00
2022-11-12T08:07:25.584Z,10.00
2022-11-12T08:09:55.874Z,9.00
2022-11-12T08:12:26.244Z,10.75
2022-11-12T08:14:57.195Z,9.50
2022-11-12T08:17:27.785Z,10.50
2022-11-12T08:19:58.074Z,13.50
2022-11-12T08:22:28.308Z,11.50
2022-11-12T08:25:17.565Z,10.25
2022-11-12T08:27:48.820Z,10.75
2022-11-12T08:30:21.204Z,9.25
2022-11-12T08:33:00.721Z,11.00
2022-11-12T08:35:32.847Z,13.25
2022-11-12T08:38:08.443Z,12.50
2022-11-12T08:40:38.706Z,12.25
2022-11-12T08:43:22.718Z,14.25
2022-11-12T08:46:01.064Z,15.00
2022-11-12T08:48:33.791Z,2.25
2022-11-12T08:51:08.903Z,16.50
2022-11-12T08:53:45.481Z,13.25
2022-11-12T08:56:17.294Z,14.75
2022-11-12T08:58:50.556Z,17.50
2022-11-12T09:01:20.879Z,15.50
2022-11-12T09:03:51.304Z,20.25
2022-11-12T09:06:35.406Z,18.50
2022-11-12T09:08:59.508Z,15.50
2022-11-12T09:11:30.412Z,16.75
2022-11-12T09:14:02.220Z,19.50
2022-11-12T09:16:33.103Z,17.25
2022-11-12T09:19:05.015Z,17.25
2022-11-12T09:21:36.755Z,16.50
2022-11-12T09:24:09.428Z,17.00
2022-11-12T09:26:39.847Z,16.50
2022-11-12T09:29:16.055Z,14.50
2022-11-12T09:31:53.489Z,16.00
2022-11-12T09:34:36.965Z,15.50
2022-11-12T09:37:07.911Z,17.25
2022-11-12T09:39:45.611Z,16.25
2022-11-12T09:42:22.474Z,15.00
2022-11-12T09:45:10.265Z,16.75
2022-11-12T09:48:08.162Z,14.50
2022-11-12T09:50:45.368Z,13.75
2022-11-12T09:53:22.204Z,14.50
2022-11-12T09:55:52.650Z,16.25
2022-11-12T09:58:23.201Z,15.25
2022-11-12T10:00:59.613Z,18.50
2022-11-12T10:06:38.528Z,12.00
2022-11-12T10:09:20.639Z,14.75
2022-11-12T10:12:23.923Z,14.25
2022-11-12T10:15:07.582Z,17.00
2022-11-12T10:17:45.211Z,16.50
2022-11-12T10:20:42.016Z,16.00
2022-11-12T10:26:19.606Z,19.75
2022-11-12T10:29:09.248Z,17.75
2022-11-12T10:34:37.138Z,11.00
2022-11-12T10:37:40.422Z,22.75
2022-11-12T10:40:28.897Z,23.50
2022-11-12T10:43:05.917Z,23.00
2022-11-12T10:45:36.916Z,25.00
2022-11-12T10:48:27.540Z,27.00
2022-11-12T10:50:57.908Z,26.00
2022-11-12T10:53:39.863Z,19.75
2022-11-12T10:56:34.302Z,23.00
2022-11-12T10:59:19.932Z,23.00
2022-11-12T11:01:59.015Z,23.00
2022-11-12T11:04:35.605Z,23.00
2022-11-12T11:07:17.862Z,21.75
2022-11-12T11:10:17.323Z,19.25
2022-11-12T11:12:50.243Z,23.00
2022-11-12T11:15:30.387Z,19.25
2022-11-12T11:18:00.863Z,21.75
2022-11-12T11:20:38.327Z,18.75
2022-11-12T11:23:36.772Z,15.50
2022-11-12T11:26:31.428Z,19.25
2022-11-12T11:29:20.882Z,19.25
2022-11-12T11:32:16.310Z,13.50
2022-11-12T11:34:55.675Z,15.25
2022-11-12T11:37:29.946Z,15.25
2022-11-12T11:41:01.969Z,16.50
2022-11-12T11:43:09.070Z,17.50
2022-11-12T11:45:46.664Z,16.00
2022-11-12T11:48:41.563Z,18.25
2022-11-12T11:51:30.749Z,17.25
2022-11-12T11:54:10.756Z,3.25
2022-11-12T12:00:01.473Z,14.25
2022-11-12T12:06:04.441Z,17.25
2022-11-12T12:08:52.201Z,15.75
2022-11-12T12:11:42.294Z,15.00
2022-11-12T12:14:29.354Z,12.25
2022-11-12T12:17:15.149Z,14.50
2022-11-12T12:20:21.955Z,18.75
2022-11-12T12:23:01.118Z,14.00
2022-11-12T12:25:35.002Z,18.50
2022-11-12T12:28:29.355Z,14.25
2022-11-12T12:31:21.363Z,11.00
2022-11-12T12:34:23.656Z,14.50
2022-11-12T12:59:44.658Z,13.25
2022-11-12T13:02:20.919Z,13.75
2022-11-12T13:07:43.889Z,14.75
2022-11-12T13:10:46.367Z,14.25
2022-11-12T13:13:30.688Z,15.00
2022-11-12T13:16:01.936Z,15.50
2022-11-12T13:21:31.682Z,12.75
2022-11-12T13:24:07.662Z,13.00
2022-11-12T13:26:51.297Z,24.00
2022-11-12T13:32:31.462Z,16.50
2022-11-12T13:35:25.707Z,17.00
2022-11-12T13:51:08.452Z,21.75
2022-11-12T13:53:39.113Z,18.25
2022-11-12T13:56:12.327Z,15.00
2022-11-12T13:58:54.452Z,21.50
2022-11-12T14:11:15.152Z,22.75
2022-11-12T14:13:57.652Z,19.25
2022-11-12T14:16:53.488Z,22.00
2022-11-12T14:20:01.884Z,23.00
2022-11-12T14:22:41.195Z,18.75
2022-11-12T14:25:36.842Z,22.00
2022-11-12T14:28:10.540Z,22.75
2022-11-12T14:30:45.025Z,25.25
2022-11-12T14:33:21.430Z,21.00
2022-11-12T14:35:57.023Z,21.00
2022-11-12T14:38:36.126Z,24.25
2022-11-12T14:41:12.536Z,23.00
2022-11-12T14:44:07.473Z,27.00
2022-11-12T14:46:27.446Z,26.00
2022-11-12T14:49:02.735Z,24.25
2022-11-12T14:51:36.375Z,26.25
2022-11-12T14:54:09.933Z,27.00
2022-11-12T14:56:49.049Z,26.00
2022-11-12T14:59:26.480Z,25.25
2022-11-12T15:02:31.623Z,26.50
2022-11-12T15:04:52.411Z,23.00
2022-11-12T15:07:40.148Z,23.00
2022-11-12T15:10:32.390Z,21.50
2022-11-12T15:13:18.144Z,24.25
2022-11-12T15:16:26.119Z,25.25
2022-11-12T15:19:11.198Z,38.75
2022-11-12T15:21:47.658Z,23.25
2022-11-12T15:24:27.172Z,23.25
2022-11-12T15:27:01.499Z,23.25
2022-11-12T15:32:37.466Z,23.00
2022-11-12T15:36:32.441Z,23.25
2022-11-12T15:38:32.339Z,22.00
2022-11-12T15:44:29.913Z,23.25
2022-11-12T15:47:32.746Z,23.50
2022-11-12T15:53:41.214Z,14.50
2022-11-12T15:56:44.050Z,19.25
2022-11-12T15:59:20.819Z,21.00
2022-11-12T16:01:56.479Z,23.00
2022-11-12T16:04:27.598Z,19.75
2022-11-12T16:07:55.911Z,22.00
2022-11-12T16:13:02.590Z,24.25
2022-11-12T16:16:14.160Z,17.25
2022-11-12T16:19:08.867Z,21.00
2022-11-12T16:22:07.079Z,22.00
2022-11-12T16:48:38.409Z,22.00
2022-11-12T17:14:16.538Z,21.00
2022-11-12T17:20:02.301Z,15.50
2022-11-12T17:22:33.889Z,15.50
2022-11-12T17:25:07.296Z,20.50
2022-11-12T17:27:45.417Z,20.00
2022-11-12T17:30:18.306Z,19.75
2022-11-12T17:32:48.911Z,20.25
2022-11-12T17:35:19.519Z,19.25
2022-11-12T17:37:49.856Z,11.00
2022-11-12T17:40:25.745Z,19.75
2022-11-12T17:43:03.291Z,23.25
2022-11-12T17:45:33.526Z,21.75
2022-11-12T17:48:03.995Z,21.50
2022-11-12T17:50:37.969Z,24.00
2022-11-12T17:53:10.395Z,24.25
2022-11-12T17:55:44.816Z,24.25
2022-11-12T17:58:36.434Z,19.50
2022-11-12T18:01:14.981Z,24.00
2022-11-12T18:03:47.796Z,19.50
2022-11-12T18:09:14.515Z,20.75
2022-11-12T18:11:48.353Z,21.50
2022-11-12T18:14:19.360Z,23.25
2022-11-12T18:20:29.049Z,20.00
2022-11-12T18:22:59.577Z,24.00
2022-11-12T18:25:30.343Z,23.00
2022-11-12T18:28:05.417Z,14.25
2022-11-12T18:30:36.905Z,19.25
2022-11-12T18:33:10.533Z,29.00
2022-11-12T18:35:42.202Z,23.00
2022-11-12T18:38:12.844Z,19.00
2022-11-12T18:40:44.966Z,32.25
2022-11-12T18:43:18.954Z,21.50
2022-11-12T18:48:50.521Z,20.50
2022-11-12T18:51:22.564Z,19.00
2022-11-12T18:53:53.145Z,19.50
2022-11-12T18:56:25.495Z,5.50
2022-11-12T18:58:59.246Z,20.00
2022-11-12T19:01:39.766Z,18.50
2022-11-12T19:04:23.776Z,18.00
2022-11-12T19:06:56.390Z,19.50
2022-11-12T19:09:28.200Z,27.50
2022-11-12T19:12:00.099Z,16.00
2022-11-12T19:14:31.601Z,24.00
2022-11-12T19:17:02.291Z,10.50
2022-11-12T19:19:32.952Z,18.25
2022-11-12T19:22:03.403Z,15.00
2022-11-12T19:24:35.077Z,26.25
2022-11-12T19:27:05.517Z,18.50
2022-11-12T19:29:35.900Z,15.75
2022-11-12T19:32:32.142Z,14.50
2022-11-12T19:35:11.878Z,15.00
2022-11-12T19:37:42.988Z,19.25
2022-11-12T19:40:15.321Z,13.50
2022-11-12T19:42:48.356Z,14.50
2022-11-12T19:45:22.149Z,16.00
2022-11-12T19:47:53.072Z,15.25
2022-11-12T19:50:25.170Z,14.75
2022-11-12T19:53:01.226Z,16.50
2022-11-12T19:55:35.818Z,13.00
2022-11-12T19:58:04.877Z,16.50
2022-11-12T20:00:37.545Z,19.25
2022-11-12T20:03:08.887Z,13.50
2022-11-12T20:05:39.840Z,14.50
2022-11-12T20:08:10.328Z,13.00
2022-11-12T20:10:41.208Z,14.50
2022-11-12T20:13:11.720Z,0.00
2022-11-12T20:15:42.816Z,12.00
2022-11-12T20:18:17.691Z,10.00
2022-11-12T20:20:53.838Z,14.75
2022-11-12T20:23:25.519Z,15.50
2022-11-12T20:25:59.084Z,14.50
2022-11-12T20:28:34.282Z,13.00
2022-11-12T20:31:16.546Z,16.25
2022-11-12T20:33:48.066Z,17.25
2022-11-12T20:36:22.664Z,15.50
2022-11-12T20:38:53.178Z,16.25
2022-11-12T20:41:26.057Z,18.25
2022-11-12T20:44:12.286Z,16.75
2022-11-12T20:46:38.386Z,19.25
2022-11-12T20:49:08.921Z,17.50
2022-11-12T20:51:40.039Z,19.25
2022-11-12T20:54:14.365Z,18.50
2022-11-12T20:56:44.940Z,18.75
2022-11-12T20:59:15.515Z,19.00
2022-11-12T21:01:47.310Z,16.75
2022-11-12T21:04:17.570Z,13.75
2022-11-12T21:06:50.518Z,14.25
2022-11-12T21:09:23.416Z,18.25
2022-11-12T21:15:03.201Z,14.00
2022-11-12T21:17:36.216Z,16.25
2022-11-12T21:20:09.104Z,14.25
2022-11-12T21:22:39.455Z,15.50
2022-11-12T21:25:10.080Z,15.75
2022-11-12T21:27:41.048Z,16.75
2022-11-12T21:30:11.844Z,14.25
2022-11-12T21:32:42.627Z,13.75
2022-11-12T21:35:13.472Z,9.75
2022-11-12T21:37:43.856Z,17.00
2022-11-12T21:40:14.373Z,15.50
2022-11-12T21:42:45.733Z,14.50
2022-11-12T21:45:16.051Z,17.50
2022-11-12T21:47:46.436Z,17.00
2022-11-12T21:50:17.515Z,18.25
2022-11-12T21:52:48.340Z,17.75
2022-11-12T21:55:19.014Z,9.00
2022-11-12T21:57:50.055Z,14.75
2022-11-12T22:00:41.649Z,15.25
2022-11-12T22:02:57.109Z,12.75
2022-11-12T22:05:28.264Z,9.00
2022-11-12T22:08:01.834Z,11.75
2022-11-12T22:10:32.422Z,17.50
2022-11-12T22:13:25.869Z,14.75
2022-11-12T22:15:35.077Z,12.75
2022-11-12T22:18:08.603Z,14.25
2022-11-12T22:20:39.614Z,17.75
2022-11-12T22:23:10.151Z,10.25
2022-11-12T22:25:40.812Z,15.75
2022-11-12T22:28:11.697Z,18.50
2022-11-12T22:30:42.250Z,14.25
2022-11-12T22:33:12.737Z,14.50
2022-11-12T22:35:43.287Z,14.50
2022-11-12T22:38:14.418Z,13.75
2022-11-12T22:40:47.211Z,11.25
2022-11-12T22:43:19.156Z,11.50
2022-11-12T22:45:51.259Z,16.50
2022-11-12T22:48:23.257Z,17.00
2022-11-12T22:50:56.572Z,14.00
2022-11-12T22:53:30.231Z,16.75
2022-11-12T22:56:23.678Z,12.25
2022-11-12T22:59:20.657Z,13.00
2022-11-12T23:01:56.724Z,15.25
2022-11-12T23:04:28.612Z,15.00
2022-11-12T23:07:19.680Z,16.00
2022-11-12T23:09:50.075Z,16.75
2022-11-12T23:12:23.490Z,8.25
2022-11-12T23:14:56.475Z,13.50
2022-11-12T23:17:27.374Z,14.00
2022-11-12T23:19:57.782Z,13.25
2022-11-12T23:22:28.322Z,14.50
2022-11-12T23:25:00.082Z,14.00
2022-11-12T23:27:31.988Z,15.75
2022-11-12T23:30:06.939Z,13.00
2022-11-12T23:32:37.804Z,18.50
2022-11-12T23:35:08.476Z,20.75
2022-11-12T23:37:40.053Z,16.75
2022-11-12T23:40:13.526Z,18.00
2022-11-12T23:42:43.693Z,18.25
2022-11-12T23:45:21.396Z,17.50
2022-11-12T23:48:16.910Z,18.00
2022-11-12T23:50:49.340Z,14.75
2022-11-12T23:53:19.575Z,15.25
2022-11-12T23:55:50.383Z,17.00
2022-11-12T23:58:20.870Z,15.75
